createdAt,value
2022-10-21T00:00:59.082Z,11.90
2022-10-21T00:03:36.557Z,11.80
2022-10-21T00:06:05.731Z,10.90
2022-10-21T00:08:37.485Z,11.20
2022-10-21T00:11:08.470Z,11.50
2022-10-21T00:13:39.621Z,12.90
2022-10-21T00:16:15.291Z,11.80
2022-10-21T00:18:45.648Z,12.30
2022-10-21T00:21:18.282Z,11.40
2022-10-21T00:23:47.168Z,11.70
2022-10-21T00:26:15.937Z,12.20
2022-10-21T00:28:43.673Z,13.40
2022-10-21T00:31:13.921Z,12.50
2022-10-21T00:33:42.191Z,12.50
2022-10-21T00:36:15.458Z,13.60
2022-10-21T00:38:45.996Z,12.90
2022-10-21T00:41:15.662Z,12.10
2022-10-21T00:44:10.798Z,12.40
2022-10-21T00:47:17.155Z,11.30
2022-10-21T00:49:59.289Z,11.60
2022-10-21T00:52:28.287Z,13.70
2022-10-21T00:54:57.699Z,12.40
2022-10-21T00:57:28.028Z,11.60
2022-10-21T01:00:00.426Z,12.40
2022-10-21T01:02:29.556Z,13.10
2022-10-21T01:05:00.502Z,12.60
2022-10-21T01:07:28.576Z,12.70
2022-10-21T01:09:56.404Z,14.40
2022-10-21T01:12:38.333Z,12.40
2022-10-21T01:15:25.842Z,12.60
2022-10-21T01:18:13.910Z,12.70
2022-10-21T01:21:08.722Z,13.00
2022-10-21T01:23:58.754Z,12.40
2022-10-21T01:27:07.844Z,13.20
2022-10-21T01:30:12.720Z,12.60
2022-10-21T01:33:14.693Z,13.40
2022-10-21T01:36:39.645Z,13.30
2022-10-21T01:39:41.540Z,13.50
2022-10-21T01:42:29.319Z,14.60
2022-10-21T01:45:13.397Z,13.80
2022-10-21T01:47:47.171Z,14.00
2022-10-21T01:50:24.313Z,13.90
2022-10-21T01:52:55.829Z,14.60
2022-10-21T01:55:27.595Z,13.30
2022-10-21T01:58:02.499Z,14.60
2022-10-21T02:00:31.027Z,13.80
2022-10-21T02:03:00.958Z,13.30
2022-10-21T02:05:31.147Z,13.80
2022-10-21T02:07:59.095Z,15.30
2022-10-21T02:10:32.583Z,13.90
2022-10-21T02:13:03.605Z,14.80
2022-10-21T02:15:33.278Z,14.20
2022-10-21T02:18:09.468Z,13.80
2022-10-21T02:20:40.300Z,13.70
2022-10-21T02:23:12.442Z,14.80
2022-10-21T02:25:42.845Z,16.00
2022-10-21T02:28:11.851Z,14.20
2022-10-21T02:31:12.987Z,14.40
2022-10-21T02:34:27.613Z,13.10
2022-10-21T02:37:04.528Z,14.40
2022-10-21T02:39:37.859Z,14.50
2022-10-21T02:42:10.781Z,14.50
2022-10-21T02:44:38.580Z,14.30
2022-10-21T02:47:06.413Z,14.90
2022-10-21T02:49:34.239Z,14.60
2022-10-21T02:52:01.978Z,14.20
2022-10-21T02:54:29.735Z,15.30
2022-10-21T02:56:57.508Z,14.60
2022-10-21T02:59:25.448Z,14.70
2022-10-21T03:01:53.323Z,15.40
2022-10-21T03:04:21.222Z,16.10
2022-10-21T03:06:49.052Z,13.40
2022-10-21T03:09:16.840Z,14.40
2022-10-21T03:11:44.578Z,15.20
2022-10-21T03:14:13.319Z,15.40
2022-10-21T03:16:41.029Z,14.60
2022-10-21T03:19:09.960Z,15.80
2022-10-21T03:21:37.812Z,14.50
2022-10-21T03:24:10.987Z,14.30
2022-10-21T03:26:47.575Z,15.30
2022-10-21T03:29:15.672Z,14.60
2022-10-21T03:31:43.787Z,14.30
2022-10-21T03:34:11.767Z,14.80
2022-10-21T03:36:39.588Z,14.30
2022-10-21T03:39:07.467Z,15.30
2022-10-21T03:41:35.312Z,15.20
2022-10-21T03:44:03.756Z,14.70
2022-10-21T03:46:31.625Z,14.30
2022-10-21T03:49:03.020Z,16.00
2022-10-21T03:51:33.428Z,15.90
2022-10-21T03:54:01.168Z,15.60
2022-10-21T03:56:28.882Z,14.90
2022-10-21T03:58:58.849Z,15.60
2022-10-21T04:01:27.452Z,15.90
2022-10-21T04:03:55.224Z,15.60
2022-10-21T04:06:22.906Z,16.30
2022-10-21T04:08:52.446Z,16.20
2022-10-21T04:11:20.310Z,17.80
2022-10-21T04:13:48.185Z,16.50
2022-10-21T04:16:19.427Z,16.40
2022-10-21T04:18:47.485Z,16.70
2022-10-21T04:21:15.666Z,17.50
2022-10-21T04:23:43.775Z,17.20
2022-10-21T04:26:12.240Z,17.80
2022-10-21T04:28:40.079Z,16.80
2022-10-21T04:31:07.829Z,17.60
2022-10-21T04:33:35.622Z,15.80
2022-10-21T04:36:03.571Z,15.90
2022-10-21T04:38:31.570Z,16.80
2022-10-21T04:41:02.130Z,17.50
2022-10-21T04:43:30.405Z,15.00
2022-10-21T04:45:58.570Z,15.60
2022-10-21T04:48:26.419Z,16.60
2022-10-21T04:50:54.819Z,14.90
2022-10-21T04:53:23.371Z,16.10
2022-10-21T04:55:54.593Z,16.10
2022-10-21T04:58:22.920Z,16.20
2022-10-21T05:00:51.924Z,17.80
2022-10-21T05:03:20.379Z,18.10
2022-10-21T05:09:06.982Z,21.60
2022-10-21T05:11:34.996Z,25.90
2022-10-21T05:14:02.898Z,26.60
2022-10-21T05:16:30.728Z,25.50
2022-10-21T05:18:59.553Z,25.60
2022-10-21T05:21:29.665Z,23.30
2022-10-21T05:23:58.055Z,23.30
2022-10-21T05:26:26.196Z,20.70
2022-10-21T05:28:54.343Z,20.00
2022-10-21T05:31:22.403Z,20.10
2022-10-21T05:33:50.359Z,20.20
2022-10-21T05:36:20.569Z,18.50
2022-10-21T05:38:51.963Z,18.00
2022-10-21T05:41:22.998Z,17.40
2022-10-21T05:43:50.900Z,17.40
2022-10-21T05:46:18.725Z,17.40
2022-10-21T05:51:25.508Z,19.70
2022-10-21T05:53:54.659Z,24.20
2022-10-21T05:56:22.684Z,20.30
2022-10-21T05:58:51.693Z,20.50
2022-10-21T06:01:19.592Z,18.10
2022-10-21T06:03:47.454Z,16.00
2022-10-21T06:06:15.325Z,16.70
2022-10-21T06:08:43.168Z,15.30
2022-10-21T06:11:17.464Z,17.10
2022-10-21T06:13:46.083Z,16.90
2022-10-21T06:16:14.848Z,17.40
2022-10-21T06:18:43.873Z,17.00
2022-10-21T06:21:12.119Z,16.40
2022-10-21T06:23:39.952Z,18.80
2022-10-21T06:26:11.643Z,19.10
2022-10-21T06:28:42.269Z,16.80
2022-10-21T06:31:17.336Z,18.10
2022-10-21T06:33:45.092Z,17.80
2022-10-21T06:36:13.136Z,18.50
2022-10-21T06:38:41.323Z,18.70
2022-10-21T06:41:13.637Z,20.40
2022-10-21T06:43:42.816Z,21.50
2022-10-21T06:46:14.351Z,21.00
2022-10-21T06:48:42.372Z,21.90
2022-10-21T06:51:17.258Z,18.30
2022-10-21T06:53:46.005Z,18.50
2022-10-21T06:56:16.969Z,15.50
2022-10-21T06:58:48.133Z,14.20
2022-10-21T07:01:34.585Z,16.40
2022-10-21T07:04:10.660Z,14.50
2022-10-21T07:06:38.505Z,14.50
2022-10-21T07:09:08.721Z,13.60
2022-10-21T07:11:36.988Z,15.10
2022-10-21T07:14:05.180Z,15.70
2022-10-21T07:16:42.698Z,14.40
2022-10-21T07:19:10.897Z,14.50
2022-10-21T07:21:38.830Z,15.20
2022-10-21T07:24:07.467Z,14.70
2022-10-21T07:26:40.631Z,15.30
2022-10-21T07:29:09.025Z,14.80
2022-10-21T07:31:47.979Z,14.70
2022-10-21T07:34:39.288Z,14.90
2022-10-21T07:37:07.272Z,14.90
2022-10-21T07:39:35.520Z,15.50
2022-10-21T07:42:06.186Z,15.80
2022-10-21T07:44:35.686Z,16.30
2022-10-21T07:47:04.098Z,16.80
2022-10-21T07:49:42.484Z,16.10
2022-10-21T07:52:11.087Z,17.40
2022-10-21T07:55:27.454Z,18.50
2022-10-21T07:58:05.346Z,20.30
2022-10-21T08:00:44.110Z,18.70
2022-10-21T08:03:12.990Z,17.10
2022-10-21T08:05:42.047Z,16.90
2022-10-21T08:08:10.108Z,16.80
2022-10-21T08:10:42.043Z,16.40
2022-10-21T08:13:10.144Z,15.40
2022-10-21T08:15:43.536Z,14.70
2022-10-21T08:18:14.532Z,15.00
2022-10-21T08:20:46.416Z,14.50
2022-10-21T08:23:17.637Z,13.90
2022-10-21T08:25:57.582Z,15.20
2022-10-21T08:28:28.147Z,14.30
2022-10-21T08:31:10.267Z,14.80
2022-10-21T08:33:38.812Z,13.80
2022-10-21T08:36:15.497Z,13.90
2022-10-21T08:38:43.910Z,13.00
2022-10-21T08:41:26.927Z,13.00
2022-10-21T08:47:02.948Z,12.40
2022-10-21T08:49:54.226Z,15.10
2022-10-21T08:52:38.327Z,13.80
2022-10-21T08:55:44.959Z,13.50
2022-10-21T08:58:17.313Z,17.40
2022-10-21T09:01:20.360Z,15.00
2022-10-21T09:03:56.076Z,15.70
2022-10-21T09:06:34.958Z,13.10
2022-10-21T09:09:16.630Z,13.00
2022-10-21T09:12:13.606Z,12.40
2022-10-21T09:14:56.751Z,12.60
2022-10-21T09:18:07.830Z,12.30
2022-10-21T09:20:45.775Z,12.50
2022-10-21T09:23:47.209Z,12.90
2022-10-21T09:26:30.435Z,12.00
2022-10-21T09:29:04.745Z,11.90
2022-10-21T09:31:32.544Z,11.70
2022-10-21T09:34:03.024Z,11.50
2022-10-21T09:36:36.943Z,12.90
2022-10-21T09:39:17.119Z,12.30
2022-10-21T09:41:50.751Z,11.20
2022-10-21T09:44:23.372Z,10.70
2022-10-21T09:46:53.778Z,11.00
2022-10-21T09:52:22.278Z,11.10
2022-10-21T09:54:50.315Z,11.90
2022-10-21T09:57:36.885Z,11.20
2022-10-21T10:00:08.277Z,10.70
2022-10-21T10:02:43.347Z,10.80
2022-10-21T10:05:38.898Z,10.30
2022-10-21T10:08:25.626Z,10.40
2022-10-21T10:11:10.744Z,10.40
2022-10-21T10:13:46.035Z,10.80
2022-10-21T10:16:30.318Z,10.20
2022-10-21T10:19:10.118Z,9.10
2022-10-21T10:21:42.276Z,10.70
2022-10-21T10:24:21.612Z,9.90
2022-10-21T10:26:49.556Z,10.00
2022-10-21T10:29:28.527Z,10.80
2022-10-21T10:31:59.312Z,9.80
2022-10-21T10:34:37.224Z,9.50
2022-10-21T10:37:14.525Z,10.10
2022-10-21T10:39:43.238Z,9.90
2022-10-21T10:42:20.598Z,10.80
2022-10-21T10:44:53.726Z,10.00
2022-10-21T10:47:38.002Z,10.30
2022-10-21T10:50:06.631Z,11.00
2022-10-21T10:52:34.376Z,10.40
2022-10-21T10:55:11.379Z,10.70
2022-10-21T10:57:44.563Z,11.10
2022-10-21T11:00:19.144Z,9.80
2022-10-21T11:03:05.576Z,9.10
2022-10-21T11:05:48.550Z,9.00
2022-10-21T11:08:42.659Z,9.40
2022-10-21T11:11:36.545Z,9.90
2022-10-21T11:14:04.545Z,9.20
2022-10-21T11:17:12.314Z,9.30
2022-10-21T11:19:57.322Z,11.00
2022-10-21T11:22:50.122Z,9.40
2022-10-21T11:30:57.945Z,9.30
2022-10-21T11:33:46.190Z,9.10
2022-10-21T11:36:36.596Z,10.30
2022-10-21T11:39:22.416Z,10.10
2022-10-21T11:41:59.681Z,9.90
2022-10-21T11:44:49.753Z,8.50
2022-10-21T11:47:42.312Z,9.60
2022-10-21T11:50:42.936Z,9.80
2022-10-21T11:53:54.734Z,9.70
2022-10-21T11:56:22.490Z,9.40
2022-10-21T11:59:15.838Z,9.70
2022-10-21T12:02:21.792Z,8.90
2022-10-21T12:05:20.138Z,9.10
2022-10-21T12:08:22.079Z,10.10
2022-10-21T12:11:08.111Z,10.00
2022-10-21T12:13:50.057Z,10.10
2022-10-21T12:16:23.752Z,9.30
2022-10-21T12:19:07.505Z,10.70
2022-10-21T12:21:40.475Z,9.40
2022-10-21T12:24:11.277Z,9.20
2022-10-21T12:26:54.841Z,9.90
2022-10-21T12:29:42.901Z,10.20
2022-10-21T12:32:23.839Z,9.70
2022-10-21T12:34:53.640Z,9.70
2022-10-21T12:37:40.381Z,9.50
2022-10-21T12:40:36.054Z,8.90
2022-10-21T12:43:18.007Z,9.90
2022-10-21T12:45:46.243Z,9.90
2022-10-21T12:48:44.145Z,9.30
2022-10-21T12:51:30.118Z,10.00
2022-10-21T12:54:07.452Z,9.90
2022-10-21T12:56:49.634Z,10.10
2022-10-21T12:59:43.786Z,10.70
2022-10-21T13:02:29.313Z,10.70
2022-10-21T13:04:58.125Z,10.50
2022-10-21T13:07:32.963Z,10.60
2022-10-21T13:10:00.762Z,9.70
2022-10-21T13:12:31.440Z,10.70
2022-10-21T13:15:06.339Z,10.50
2022-10-21T13:17:51.525Z,9.90
2022-10-21T13:20:22.295Z,10.00
2022-10-21T13:23:03.300Z,10.10
2022-10-21T13:25:38.128Z,10.10
2022-10-21T13:28:14.912Z,9.30
2022-10-21T13:30:48.710Z,9.50
2022-10-21T13:33:29.916Z,9.40
2022-10-21T13:36:12.711Z,9.20
2022-10-21T13:38:54.628Z,8.20
2022-10-21T13:41:26.345Z,9.90
2022-10-21T13:44:00.328Z,8.70
2022-10-21T13:46:43.582Z,8.40
2022-10-21T13:49:33.764Z,9.10
2022-10-21T13:52:01.616Z,9.90
2022-10-21T13:54:35.623Z,10.40
2022-10-21T13:57:07.739Z,9.80
2022-10-21T13:59:35.605Z,9.50
2022-10-21T14:02:05.176Z,9.50
2022-10-21T14:04:34.406Z,10.00
2022-10-21T14:07:09.004Z,12.60
2022-10-21T14:09:44.885Z,13.40
2022-10-21T14:12:33.051Z,13.30
2022-10-21T14:15:18.200Z,11.80
2022-10-21T14:17:56.584Z,10.70
2022-10-21T14:20:34.242Z,10.50
2022-10-21T14:23:05.592Z,10.70
2022-10-21T14:25:33.705Z,10.10
2022-10-21T14:28:03.830Z,12.20
2022-10-21T14:30:33.816Z,12.20
2022-10-21T14:33:05.066Z,13.40
2022-10-21T14:35:32.821Z,13.90
2022-10-21T14:38:03.259Z,14.50
2022-10-21T14:40:41.613Z,14.60
2022-10-21T14:43:12.361Z,12.80
2022-10-21T14:45:49.603Z,11.50
2022-10-21T14:48:32.922Z,11.40
2022-10-21T14:51:05.926Z,12.70
2022-10-21T14:53:52.905Z,12.80
2022-10-21T14:56:30.856Z,12.00
2022-10-21T14:59:00.957Z,11.90
2022-10-21T15:01:28.767Z,12.00
2022-10-21T15:04:01.310Z,11.90
2022-10-21T15:09:01.773Z,15.40
2022-10-21T15:11:34.941Z,16.30
2022-10-21T15:14:15.110Z,18.00
2022-10-21T15:16:58.732Z,19.40
2022-10-21T15:19:44.196Z,28.60
2022-10-21T15:22:24.777Z,26.50
2022-10-21T15:24:54.959Z,25.90
2022-10-21T15:27:36.587Z,27.30
2022-10-21T15:30:28.991Z,26.80
2022-10-21T15:32:56.834Z,22.50
2022-10-21T15:35:29.144Z,21.10
2022-10-21T15:37:57.108Z,18.00
2022-10-21T15:40:27.401Z,16.90
2022-10-21T15:42:56.871Z,14.90
2022-10-21T15:45:25.056Z,16.50
2022-10-21T15:47:55.202Z,17.00
2022-10-21T15:50:25.708Z,17.50
2022-10-21T15:52:53.604Z,17.80
2022-10-21T15:55:21.464Z,15.80
2022-10-21T15:57:49.467Z,17.90
2022-10-21T16:00:21.824Z,20.10
2022-10-21T16:02:51.780Z,19.10
2022-10-21T16:05:23.286Z,16.70
2022-10-21T16:07:51.938Z,17.90
2022-10-21T16:10:29.686Z,21.20
2022-10-21T16:13:01.018Z,25.00
2022-10-21T16:15:30.208Z,25.00
2022-10-21T16:17:58.231Z,33.10
2022-10-21T16:20:33.736Z,29.00
2022-10-21T16:23:03.125Z,27.50
2022-10-21T16:25:34.794Z,26.00
2022-10-21T16:28:10.384Z,22.30
2022-10-21T16:30:42.012Z,24.10
2022-10-21T16:33:11.307Z,26.50
2022-10-21T16:35:39.794Z,26.00
2022-10-21T16:38:08.366Z,30.20
2022-10-21T16:40:36.465Z,39.60
2022-10-21T16:43:04.460Z,50.90
2022-10-21T16:45:33.342Z,51.30
2022-10-21T16:48:03.926Z,52.20
2022-10-21T16:50:41.171Z,50.20
2022-10-21T16:53:17.379Z,43.30
2022-10-21T16:55:45.371Z,45.70
2022-10-21T16:58:13.364Z,37.30
2022-10-21T17:00:53.325Z,44.90
2022-10-21T17:03:25.912Z,39.20
2022-10-21T17:05:53.966Z,38.60
2022-10-21T17:08:21.993Z,30.60
2022-10-21T17:10:49.844Z,38.10
2022-10-21T17:13:19.359Z,38.40
2022-10-21T17:15:47.530Z,33.90
2022-10-21T17:18:17.676Z,22.50
2022-10-21T17:20:45.863Z,35.90
2022-10-21T17:23:14.254Z,38.40
2022-10-21T17:25:42.311Z,41.80
2022-10-21T17:28:10.348Z,23.60
2022-10-21T17:30:38.528Z,27.20
2022-10-21T17:33:09.380Z,22.70
2022-10-21T17:35:41.184Z,19.30
2022-10-21T17:38:09.734Z,18.60
2022-10-21T17:40:37.916Z,17.70
2022-10-21T17:43:08.257Z,18.70
2022-10-21T17:45:50.583Z,14.40
2022-10-21T17:48:19.958Z,14.90
2022-10-21T17:50:56.715Z,14.90
2022-10-21T17:53:26.428Z,15.60
2022-10-21T17:56:06.256Z,15.40
2022-10-21T17:58:34.921Z,15.00
2022-10-21T18:01:13.268Z,15.70
2022-10-21T18:04:56.503Z,15.60
2022-10-21T18:07:29.943Z,15.10
2022-10-21T18:10:04.610Z,16.40
2022-10-21T18:12:35.957Z,18.10
2022-10-21T18:15:05.719Z,18.50
2022-10-21T18:17:46.393Z,17.00
2022-10-21T18:20:17.049Z,17.50
2022-10-21T18:22:46.206Z,16.60
2022-10-21T18:25:18.631Z,16.10
2022-10-21T18:27:47.537Z,16.20
2022-10-21T18:30:22.511Z,16.00
2022-10-21T18:32:59.851Z,16.70
2022-10-21T18:35:30.184Z,15.20
2022-10-21T18:37:58.979Z,16.00
2022-10-21T18:40:28.359Z,15.70
2022-10-21T18:42:57.179Z,16.80
2022-10-21T18:45:26.253Z,16.10
2022-10-21T18:47:55.967Z,16.40
2022-10-21T18:50:24.873Z,16.80
2022-10-21T18:52:53.832Z,15.70
2022-10-21T18:55:25.594Z,15.10
2022-10-21T18:57:56.664Z,15.10
2022-10-21T19:00:30.434Z,15.50
2022-10-21T19:02:59.639Z,15.00
2022-10-21T19:05:37.546Z,14.80
2022-10-21T19:08:09.895Z,14.90
2022-10-21T19:10:41.067Z,14.50
2022-10-21T19:13:11.755Z,14.00
2022-10-21T19:15:41.705Z,14.50
2022-10-21T19:18:18.084Z,15.50
2022-10-21T19:20:47.036Z,15.40
2022-10-21T19:23:18.673Z,15.60
2022-10-21T19:25:50.790Z,15.60
2022-10-21T19:28:26.568Z,15.80
2022-10-21T19:30:55.890Z,16.50
2022-10-21T19:33:27.863Z,16.40
2022-10-21T19:36:01.367Z,14.80
2022-10-21T19:38:43.771Z,16.00
2022-10-21T19:41:17.805Z,15.50
2022-10-21T19:43:47.372Z,15.80
2022-10-21T19:46:23.591Z,15.40
2022-10-21T19:48:55.310Z,15.40
2022-10-21T19:51:27.027Z,15.30
2022-10-21T19:53:59.399Z,15.60
2022-10-21T19:56:31.969Z,16.30
2022-10-21T19:59:03.269Z,16.10
2022-10-21T20:01:33.512Z,16.10
2022-10-21T20:04:03.592Z,16.50
2022-10-21T20:06:36.124Z,15.20
2022-10-21T20:11:37.134Z,16.20
2022-10-21T20:14:06.356Z,16.60
2022-10-21T20:16:38.493Z,16.60
2022-10-21T20:19:08.015Z,16.40
2022-10-21T20:21:37.262Z,15.80
2022-10-21T20:24:06.223Z,15.50
2022-10-21T20:26:36.199Z,16.60
2022-10-21T20:29:05.119Z,16.30
2022-10-21T20:31:33.327Z,16.00
2022-10-21T20:34:01.256Z,16.00
2022-10-21T20:36:32.756Z,16.50
2022-10-21T20:39:03.465Z,17.00
2022-10-21T20:41:35.985Z,16.50
2022-10-21T20:44:06.124Z,16.50
2022-10-21T20:46:36.245Z,17.00
2022-10-21T20:49:06.721Z,16.70
2022-10-21T20:51:39.663Z,15.80
2022-10-21T20:54:12.910Z,16.00
2022-10-21T20:56:41.386Z,16.30
2022-10-21T20:59:12.847Z,16.80
2022-10-21T21:01:43.447Z,16.00
2022-10-21T21:04:14.612Z,16.60
2022-10-21T21:06:46.785Z,16.90
2022-10-21T21:12:04.741Z,15.50
2022-10-21T21:14:32.812Z,16.40
2022-10-21T21:17:00.963Z,15.90
2022-10-21T21:19:28.840Z,16.50
2022-10-21T21:21:56.662Z,15.30
2022-10-21T21:24:24.598Z,15.30
2022-10-21T21:26:52.457Z,15.80
2022-10-21T21:29:20.310Z,15.60
2022-10-21T21:31:51.366Z,14.90
2022-10-21T21:34:19.461Z,16.30
2022-10-21T21:36:47.224Z,14.50
2022-10-21T21:41:48.090Z,15.00
2022-10-21T21:44:15.947Z,15.10
2022-10-21T21:46:43.821Z,14.70
2022-10-21T21:49:11.764Z,14.40
2022-10-21T21:51:39.675Z,16.20
2022-10-21T21:54:07.995Z,15.60
2022-10-21T21:56:38.423Z,15.90
2022-10-21T21:59:08.655Z,15.10
2022-10-21T22:01:36.974Z,15.60
2022-10-21T22:04:07.949Z,16.60
2022-10-21T22:06:38.478Z,16.50
2022-10-21T22:09:10.187Z,18.30
2022-10-21T22:11:38.896Z,17.20
2022-10-21T22:14:06.825Z,17.40
2022-10-21T22:16:34.886Z,18.10
2022-10-21T22:19:03.586Z,17.40
2022-10-21T22:21:32.518Z,17.40
2022-10-21T22:24:00.586Z,17.30
2022-10-21T22:26:29.945Z,17.80
2022-10-21T22:28:57.897Z,16.50
2022-10-21T22:31:29.340Z,17.10
2022-10-21T22:34:01.063Z,16.40
2022-10-21T22:36:29.197Z,17.20
2022-10-21T22:38:57.668Z,17.10
2022-10-21T22:41:26.277Z,17.50
2022-10-21T22:43:54.024Z,18.30
2022-10-21T22:46:33.259Z,18.00
2022-10-21T22:49:06.242Z,18.80
2022-10-21T22:51:34.489Z,17.80
2022-10-21T22:54:02.582Z,18.70
2022-10-21T22:56:30.546Z,18.60
2022-10-21T22:58:59.018Z,17.30
2022-10-21T23:01:31.083Z,19.40
2022-10-21T23:04:04.111Z,19.90
2022-10-21T23:06:53.786Z,19.30
2022-10-21T23:09:21.775Z,17.20
2022-10-21T23:11:49.607Z,18.30
2022-10-21T23:14:17.408Z,18.40
2022-10-21T23:16:45.231Z,18.20
2022-10-21T23:19:14.108Z,17.90
2022-10-21T23:21:42.499Z,17.70
2022-10-21T23:24:17.540Z,19.40
2022-10-21T23:26:45.308Z,18.40
2022-10-21T23:29:13.153Z,18.50
2022-10-21T23:31:40.934Z,18.30
2022-10-21T23:34:09.502Z,20.20
2022-10-21T23:36:37.362Z,19.50
2022-10-21T23:39:06.039Z,18.80
2022-10-21T23:41:33.820Z,18.70
2022-10-21T23:44:01.647Z,20.60
2022-10-21T23:46:29.463Z,18.60
2022-10-21T23:48:57.188Z,18.70
2022-10-21T23:51:24.945Z,19.90
2022-10-21T23:53:52.723Z,17.80
2022-10-21T23:56:20.527Z,18.20
2022-10-21T23:58:48.312Z,17.70
